createdAt,value
2023-02-15T00:00:41.248Z,19.15
2023-02-15T00:05:42.949Z,18.60
2023-02-15T00:10:44.267Z,17.88
2023-02-15T00:15:45.639Z,18.98
2023-02-15T00:20:46.934Z,17.90
2023-02-15T00:25:48.251Z,17.52
2023-02-15T00:30:49.721Z,18.00
2023-02-15T00:35:57.447Z,19.65
2023-02-15T00:41:01.348Z,18.10
2023-02-15T00:46:05.457Z,18.95
2023-02-15T00:51:07.101Z,16.70
2023-02-15T00:56:08.535Z,20.02
2023-02-15T01:01:12.612Z,22.00
2023-02-15T01:06:15.973Z,23.00
2023-02-15T01:11:24.977Z,21.77
2023-02-15T01:16:28.754Z,20.55
2023-02-15T01:21:30.311Z,20.20
2023-02-15T01:26:31.665Z,22.13
2023-02-15T01:31:33.051Z,22.35
2023-02-15T01:36:35.356Z,22.67
2023-02-15T01:41:37.177Z,21.85
2023-02-15T01:46:44.394Z,22.10
2023-02-15T01:51:49.703Z,22.85
2023-02-15T01:56:51.715Z,22.85
2023-02-15T02:01:56.219Z,24.67
2023-02-15T02:06:59.882Z,22.60
2023-02-15T02:12:02.202Z,23.75
2023-02-15T02:17:23.069Z,21.63
2023-02-15T02:22:39.459Z,23.58
2023-02-15T02:27:50.325Z,22.67
2023-02-15T02:38:16.163Z,22.48
2023-02-15T02:43:29.619Z,23.38
2023-02-15T02:48:34.773Z,22.77
2023-02-15T02:53:36.380Z,24.73
2023-02-15T02:58:47.203Z,23.80
2023-02-15T03:03:52.489Z,23.40
2023-02-15T03:09:02.170Z,23.50
2023-02-15T03:14:03.579Z,24.23
2023-02-15T03:19:18.043Z,21.85
2023-02-15T03:24:27.399Z,24.63
2023-02-15T03:29:30.882Z,23.25
2023-02-15T03:34:32.470Z,24.50
2023-02-15T03:39:50.802Z,25.27
2023-02-15T03:44:57.959Z,23.83
2023-02-15T03:50:26.169Z,23.70
2023-02-15T03:55:28.775Z,24.42
2023-02-15T04:00:55.031Z,24.63
2023-02-15T04:05:56.512Z,23.42
2023-02-15T04:10:57.997Z,25.70
2023-02-15T04:16:07.236Z,23.65
2023-02-15T04:21:27.625Z,23.17
2023-02-15T04:26:29.033Z,24.10
2023-02-15T04:31:30.450Z,25.65
2023-02-15T04:36:31.922Z,24.77
2023-02-15T04:41:34.340Z,25.00
2023-02-15T04:46:35.684Z,26.30
2023-02-15T04:51:37.453Z,29.20
2023-02-15T04:56:39.937Z,27.73
2023-02-15T05:01:41.636Z,27.45
2023-02-15T05:06:42.945Z,28.67
2023-02-15T05:11:44.325Z,28.80
2023-02-15T05:16:45.745Z,28.13
2023-02-15T05:21:47.093Z,27.17
2023-02-15T05:27:07.043Z,26.58
2023-02-15T05:32:08.620Z,28.45
2023-02-15T05:37:10.189Z,25.98
2023-02-15T05:42:11.483Z,26.58
2023-02-15T05:47:12.832Z,28.42
2023-02-15T05:52:14.174Z,27.83
2023-02-15T05:57:15.570Z,27.25
2023-02-15T06:02:17.015Z,26.23
2023-02-15T06:07:18.656Z,25.98
2023-02-15T06:12:19.997Z,24.45
2023-02-15T06:17:22.487Z,25.60
2023-02-15T06:22:23.857Z,25.67
2023-02-15T06:27:25.190Z,25.40
2023-02-15T06:32:30.281Z,24.77
2023-02-15T06:42:33.193Z,23.45
2023-02-15T06:47:34.537Z,24.88
2023-02-15T06:52:35.864Z,24.65
2023-02-15T06:57:37.364Z,23.73
2023-02-15T07:02:38.835Z,23.17
2023-02-15T07:07:40.416Z,23.27
2023-02-15T07:12:45.753Z,22.60
2023-02-15T07:17:47.740Z,22.60
2023-02-15T07:22:50.065Z,21.77
2023-02-15T07:27:57.884Z,23.77
2023-02-15T07:33:18.495Z,23.42
2023-02-15T07:38:20.045Z,22.92
2023-02-15T07:43:21.426Z,21.88
2023-02-15T07:48:24.936Z,24.77
2023-02-15T07:53:26.644Z,23.90
2023-02-15T07:58:48.329Z,21.10
2023-02-15T08:03:50.285Z,20.23
2023-02-15T08:08:51.656Z,21.98
2023-02-15T08:14:05.956Z,18.98
2023-02-15T08:19:16.491Z,17.93
2023-02-15T08:24:23.724Z,18.05
2023-02-15T08:29:27.943Z,16.70
2023-02-15T08:34:37.708Z,14.67
2023-02-15T08:39:39.072Z,14.55
2023-02-15T08:44:40.467Z,15.80
2023-02-15T08:49:41.803Z,15.70
2023-02-15T08:54:43.219Z,15.35
2023-02-15T08:59:45.584Z,15.02
2023-02-15T09:04:47.252Z,14.45
2023-02-15T09:09:48.656Z,14.18
2023-02-15T09:14:49.990Z,13.73
2023-02-15T09:19:51.479Z,12.73
2023-02-15T09:24:52.765Z,13.80
2023-02-15T09:29:54.070Z,13.40
2023-02-15T09:34:55.430Z,13.27
2023-02-15T09:39:56.865Z,12.50
2023-02-15T09:45:05.082Z,12.48
2023-02-15T09:50:13.740Z,12.57
2023-02-15T09:55:25.330Z,12.20
2023-02-15T10:00:48.656Z,11.65
2023-02-15T10:06:18.037Z,11.50
2023-02-15T10:11:44.168Z,10.57
2023-02-15T10:17:13.892Z,12.93
2023-02-15T10:22:19.419Z,11.27
2023-02-15T10:27:22.585Z,12.90
2023-02-15T10:32:30.207Z,13.38
2023-02-15T10:37:46.805Z,15.80
2023-02-15T10:42:53.260Z,15.35
2023-02-15T10:48:16.378Z,15.02
2023-02-15T10:53:53.465Z,15.63
2023-02-15T10:59:13.654Z,14.05
2023-02-15T11:04:17.976Z,14.35
2023-02-15T11:09:22.950Z,13.77
2023-02-15T11:14:45.996Z,14.25
2023-02-15T11:19:53.365Z,16.15
2023-02-15T11:24:55.442Z,15.85
2023-02-15T11:30:05.215Z,16.10
2023-02-15T11:35:12.591Z,16.13
2023-02-15T11:40:31.286Z,16.88
2023-02-15T11:45:37.635Z,17.63
2023-02-15T11:50:39.484Z,18.23
2023-02-15T11:55:43.825Z,18.50
2023-02-15T12:00:50.421Z,22.60
2023-02-15T12:05:59.339Z,23.90
2023-02-15T12:11:16.306Z,24.45
2023-02-15T12:16:17.806Z,24.05
2023-02-15T12:21:34.890Z,23.63
2023-02-15T12:26:37.841Z,21.13
2023-02-15T12:31:42.816Z,22.08
2023-02-15T12:41:56.184Z,24.60
2023-02-15T12:47:20.197Z,22.75
2023-02-15T12:52:21.488Z,23.27
2023-02-15T12:57:26.234Z,24.10
2023-02-15T13:02:45.183Z,25.25
2023-02-15T13:07:51.137Z,24.98
2023-02-15T13:12:55.106Z,25.70
2023-02-15T13:17:58.674Z,25.45
2023-02-15T13:23:06.098Z,26.65
2023-02-15T13:28:14.787Z,25.63
2023-02-15T13:33:27.207Z,26.85
2023-02-15T13:38:52.779Z,28.77
2023-02-15T13:44:22.314Z,28.70
2023-02-15T13:49:50.438Z,29.33
2023-02-15T13:55:22.968Z,27.02
2023-02-15T14:00:42.072Z,29.60
2023-02-15T14:05:51.089Z,28.83
2023-02-15T14:11:07.084Z,27.15
2023-02-15T14:16:21.325Z,28.02
2023-02-15T14:21:35.720Z,29.13
2023-02-15T14:26:54.790Z,31.83
2023-02-15T14:32:05.159Z,29.73
2023-02-15T14:37:06.904Z,30.98
2023-02-15T14:42:34.360Z,30.35
2023-02-15T14:47:44.157Z,31.70
2023-02-15T14:53:39.954Z,30.83
2023-02-15T14:58:53.353Z,29.88
2023-02-15T15:03:58.363Z,30.58
2023-02-15T15:14:04.251Z,29.02
2023-02-15T15:19:11.133Z,31.02
2023-02-15T15:24:38.476Z,30.60
2023-02-15T15:29:41.375Z,32.97
2023-02-15T15:35:03.739Z,30.55
2023-02-15T15:40:08.126Z,30.98
2023-02-15T15:45:34.476Z,30.67
2023-02-15T15:50:41.217Z,33.45
2023-02-15T15:55:43.918Z,33.95
2023-02-15T16:01:09.947Z,33.63
2023-02-15T16:06:15.698Z,34.03
2023-02-15T16:11:24.545Z,33.50
2023-02-15T16:16:29.409Z,35.38
2023-02-15T16:26:58.874Z,35.10
2023-02-15T16:32:01.414Z,34.72
2023-02-15T16:37:20.582Z,34.85
2023-02-15T16:42:22.706Z,39.63
2023-02-15T16:47:28.343Z,37.00
2023-02-15T16:52:30.560Z,34.70
2023-02-15T16:57:36.094Z,41.17
2023-02-15T17:02:56.046Z,39.38
2023-02-15T17:08:13.214Z,40.30
2023-02-15T17:13:16.571Z,40.17
2023-02-15T17:18:23.683Z,40.53
2023-02-15T17:23:43.362Z,39.38
2023-02-15T17:28:51.716Z,39.03
2023-02-15T17:33:55.711Z,38.22
2023-02-15T17:39:09.686Z,40.88
2023-02-15T17:49:27.712Z,34.83
2023-02-15T17:54:47.786Z,38.92
2023-02-15T18:00:07.800Z,38.38
2023-02-15T18:05:33.315Z,37.15
2023-02-15T18:10:53.230Z,38.10
2023-02-15T18:15:56.418Z,37.53
2023-02-15T18:20:57.816Z,38.45
2023-02-15T18:25:59.132Z,39.50
2023-02-15T18:31:00.992Z,39.83
2023-02-15T18:36:06.601Z,40.33
2023-02-15T18:41:08.015Z,69.75
2023-02-15T18:46:09.847Z,38.83
2023-02-15T18:51:20.221Z,37.47
2023-02-15T18:56:23.291Z,39.22
2023-02-15T19:01:24.668Z,37.17
2023-02-15T19:06:26.106Z,35.60
2023-02-15T19:11:29.544Z,35.30
2023-02-15T19:16:33.798Z,71.78
2023-02-15T19:21:35.158Z,39.43
2023-02-15T19:26:45.685Z,35.92
2023-02-15T19:31:47.570Z,36.72
2023-02-15T19:36:51.903Z,38.28
2023-02-15T19:41:53.913Z,31.47
2023-02-15T19:46:55.891Z,34.85
2023-02-15T19:51:58.599Z,35.13
2023-02-15T19:57:00.521Z,34.33
2023-02-15T20:02:02.614Z,33.67
2023-02-15T20:07:09.954Z,59.42
2023-02-15T20:12:29.927Z,36.97
2023-02-15T20:17:31.238Z,37.55
2023-02-15T20:22:34.590Z,42.08
2023-02-15T20:27:37.365Z,38.17
2023-02-15T20:32:38.694Z,36.28
2023-02-15T20:37:40.357Z,35.88
2023-02-15T20:42:41.769Z,37.08
2023-02-15T20:47:48.221Z,34.67
2023-02-15T20:52:51.651Z,36.10
2023-02-15T20:57:53.372Z,34.38
2023-02-15T21:03:00.152Z,35.20
2023-02-15T21:08:02.029Z,35.58
2023-02-15T21:13:04.516Z,37.35
2023-02-15T21:18:15.767Z,34.33
2023-02-15T21:23:20.542Z,37.08
2023-02-15T21:28:24.269Z,35.00
2023-02-15T21:33:26.579Z,34.10
2023-02-15T21:38:31.002Z,38.30
2023-02-15T21:43:50.844Z,37.25
2023-02-15T21:48:52.148Z,37.65
2023-02-15T21:53:53.534Z,38.22
2023-02-15T21:58:54.899Z,37.45
2023-02-15T22:03:58.546Z,37.03
2023-02-15T22:08:59.904Z,34.83
2023-02-15T22:14:02.055Z,35.03
2023-02-15T22:19:03.638Z,33.85
2023-02-15T22:24:05.276Z,36.58
2023-02-15T22:29:07.208Z,36.20
2023-02-15T22:34:24.765Z,36.42
2023-02-15T22:39:26.336Z,36.40
2023-02-15T22:44:32.057Z,36.80
2023-02-15T22:49:33.508Z,36.08
2023-02-15T22:54:34.797Z,35.65
2023-02-15T22:59:36.175Z,37.75
2023-02-15T23:04:37.514Z,34.05
2023-02-15T23:09:38.849Z,36.42
2023-02-15T23:14:40.231Z,34.42
2023-02-15T23:19:41.561Z,34.30
2023-02-15T23:24:46.134Z,33.38
2023-02-15T23:29:47.478Z,34.05
2023-02-15T23:34:48.775Z,34.15
2023-02-15T23:40:10.079Z,35.33
2023-02-15T23:45:22.048Z,33.13
2023-02-15T23:50:29.088Z,34.10
2023-02-15T23:55:36.401Z,32.65
